createdAt,value
2023-03-07T00:00:14.680Z,995.87
2023-03-07T00:01:18.825Z,995.85
2023-03-07T00:02:23.063Z,995.83
2023-03-07T00:03:27.220Z,995.80
2023-03-07T00:04:31.351Z,995.78
2023-03-07T00:05:35.392Z,995.73
2023-03-07T00:06:39.661Z,995.71
2023-03-07T00:07:43.721Z,995.71
2023-03-07T00:08:47.911Z,995.70
2023-03-07T00:09:52.168Z,995.67
2023-03-07T00:10:56.367Z,995.64
2023-03-07T00:12:14.689Z,995.64
2023-03-07T00:13:17.552Z,995.60
2023-03-07T00:14:21.684Z,995.59
2023-03-07T00:15:25.792Z,995.58
2023-03-07T00:16:30.047Z,995.56
2023-03-07T00:17:34.225Z,995.54
2023-03-07T00:18:38.354Z,995.49
2023-03-07T00:19:42.441Z,995.50
2023-03-07T00:20:46.541Z,995.53
2023-03-07T00:21:50.772Z,995.51
2023-03-07T00:22:54.956Z,995.48
2023-03-07T00:23:59.150Z,995.43
2023-03-07T00:25:03.328Z,995.42
2023-03-07T00:26:07.559Z,995.41
2023-03-07T00:27:11.738Z,995.35
2023-03-07T00:28:15.852Z,995.33
2023-03-07T00:29:20.008Z,995.29
2023-03-07T00:30:24.183Z,995.25
2023-03-07T00:31:28.478Z,995.21
2023-03-07T00:32:32.557Z,995.17
2023-03-07T00:33:36.764Z,995.14
2023-03-07T00:34:40.915Z,995.14
2023-03-07T00:35:45.204Z,995.09
2023-03-07T00:36:49.150Z,995.10
2023-03-07T00:37:53.404Z,995.12
2023-03-07T00:38:57.537Z,995.08
2023-03-07T00:40:01.584Z,995.11
2023-03-07T00:41:05.857Z,995.08
2023-03-07T00:42:09.865Z,995.04
2023-03-07T00:43:14.099Z,995.03
2023-03-07T00:44:18.177Z,995.02
2023-03-07T00:45:22.409Z,994.96
2023-03-07T00:46:26.489Z,994.93
2023-03-07T00:47:30.660Z,994.89
2023-03-07T00:48:48.980Z,994.86
2023-03-07T00:49:51.779Z,994.79
2023-03-07T00:50:55.874Z,994.70
2023-03-07T00:52:00.027Z,994.64
2023-03-07T00:53:04.298Z,994.63
2023-03-07T00:54:08.477Z,994.59
2023-03-07T00:55:12.644Z,994.53
2023-03-07T00:56:16.754Z,994.48
2023-03-07T00:57:20.936Z,994.47
2023-03-07T00:58:25.052Z,994.44
2023-03-07T00:59:29.201Z,994.40
2023-03-07T01:00:33.458Z,994.36
2023-03-07T01:01:37.583Z,994.34
2023-03-07T01:02:41.735Z,994.30
2023-03-07T01:03:45.922Z,994.26
2023-03-07T01:04:50.191Z,994.23
2023-03-07T01:05:54.278Z,994.18
2023-03-07T01:06:58.461Z,994.14
2023-03-07T01:08:02.677Z,994.11
2023-03-07T01:09:06.927Z,994.06
2023-03-07T01:10:14.098Z,994.06
2023-03-07T01:11:17.219Z,994.04
2023-03-07T01:12:21.425Z,994.02
2023-03-07T01:13:25.597Z,994.00
2023-03-07T01:14:29.777Z,993.93
2023-03-07T01:15:33.911Z,993.88
2023-03-07T01:16:38.233Z,993.82
2023-03-07T01:17:42.165Z,993.79
2023-03-07T01:18:46.239Z,993.75
2023-03-07T01:19:50.481Z,993.75
2023-03-07T01:20:54.552Z,993.72
2023-03-07T01:21:58.710Z,993.67
2023-03-07T01:23:02.834Z,993.65
2023-03-07T01:24:07.093Z,993.60
2023-03-07T01:25:11.095Z,993.54
2023-03-07T01:26:15.466Z,993.48
2023-03-07T01:27:19.443Z,993.43
2023-03-07T01:28:23.615Z,993.39
2023-03-07T01:29:28.742Z,993.37
2023-03-07T01:30:32.464Z,993.33
2023-03-07T01:31:36.696Z,993.28
2023-03-07T01:32:40.791Z,993.28
2023-03-07T01:33:44.797Z,993.23
2023-03-07T01:34:49.126Z,993.21
2023-03-07T01:35:53.401Z,993.20
2023-03-07T01:36:57.382Z,993.15
2023-03-07T01:38:01.583Z,993.12
2023-03-07T01:39:05.622Z,993.07
2023-03-07T01:40:09.964Z,993.04
2023-03-07T01:41:14.100Z,992.98
2023-03-07T01:42:18.230Z,992.92
2023-03-07T01:43:22.487Z,992.93
2023-03-07T01:44:26.568Z,992.84
2023-03-07T01:45:30.752Z,992.82
2023-03-07T01:46:34.897Z,992.79
2023-03-07T01:47:39.164Z,992.77
2023-03-07T01:48:43.269Z,992.77
2023-03-07T01:49:47.495Z,992.72
2023-03-07T01:50:51.730Z,992.68
2023-03-07T01:51:55.895Z,992.67
2023-03-07T01:53:00.121Z,992.60
2023-03-07T01:54:04.238Z,992.55
2023-03-07T01:55:08.582Z,992.53
2023-03-07T01:56:15.595Z,992.54
2023-03-07T01:57:18.784Z,992.50
2023-03-07T01:58:22.948Z,992.47
2023-03-07T01:59:27.161Z,992.48
2023-03-07T02:00:31.360Z,992.44
2023-03-07T02:01:35.482Z,992.42
2023-03-07T02:02:39.576Z,992.42
2023-03-07T02:03:44.634Z,992.39
2023-03-07T02:04:48.307Z,992.34
2023-03-07T02:05:52.665Z,992.36
2023-03-07T02:06:56.830Z,992.35
2023-03-07T02:08:00.980Z,992.31
2023-03-07T02:09:05.146Z,992.25
2023-03-07T02:10:09.385Z,992.20
2023-03-07T02:11:13.613Z,992.20
2023-03-07T02:12:17.703Z,992.15
2023-03-07T02:13:21.773Z,992.11
2023-03-07T02:14:25.895Z,992.08
2023-03-07T02:15:30.074Z,992.06
2023-03-07T02:16:34.322Z,992.09
2023-03-07T02:17:38.473Z,992.05
2023-03-07T02:18:42.589Z,992.01
2023-03-07T02:19:46.738Z,991.99
2023-03-07T02:20:51.004Z,991.97
2023-03-07T02:21:55.152Z,991.93
2023-03-07T02:22:59.317Z,991.89
2023-03-07T02:24:03.463Z,991.89
2023-03-07T02:25:07.572Z,991.87
2023-03-07T02:26:12.639Z,991.84
2023-03-07T02:27:16.394Z,991.81
2023-03-07T02:28:20.658Z,991.82
2023-03-07T02:29:24.810Z,991.75
2023-03-07T02:30:29.040Z,991.68
2023-03-07T02:31:33.185Z,991.65
2023-03-07T02:32:37.374Z,991.66
2023-03-07T02:33:41.460Z,991.59
2023-03-07T02:34:45.653Z,991.54
2023-03-07T02:35:49.927Z,991.50
2023-03-07T02:36:54.030Z,991.46
2023-03-07T02:37:58.131Z,991.45
2023-03-07T02:39:02.291Z,991.40
2023-03-07T02:40:06.487Z,991.35
2023-03-07T02:41:10.797Z,991.32
2023-03-07T02:42:14.870Z,991.30
2023-03-07T02:43:18.936Z,991.28
2023-03-07T02:44:23.178Z,991.25
2023-03-07T02:45:27.361Z,991.24
2023-03-07T02:46:31.604Z,991.20
2023-03-07T02:47:35.570Z,991.16
2023-03-07T02:48:39.830Z,991.19
2023-03-07T02:49:44.020Z,991.17
2023-03-07T02:50:48.137Z,991.10
2023-03-07T02:51:52.246Z,991.16
2023-03-07T02:52:56.409Z,991.16
2023-03-07T02:54:00.582Z,991.07
2023-03-07T02:55:04.787Z,991.01
2023-03-07T02:56:08.941Z,991.00
2023-03-07T02:57:13.105Z,991.03
2023-03-07T02:58:17.262Z,991.03
2023-03-07T02:59:21.393Z,990.98
2023-03-07T03:00:25.447Z,990.88
2023-03-07T03:01:29.810Z,990.90
2023-03-07T03:02:33.900Z,990.88
2023-03-07T03:03:38.047Z,990.83
2023-03-07T03:04:42.381Z,990.81
2023-03-07T03:05:47.348Z,990.75
2023-03-07T03:06:51.005Z,990.72
2023-03-07T03:07:55.274Z,990.66
2023-03-07T03:08:59.286Z,990.65
2023-03-07T03:10:03.443Z,990.67
2023-03-07T03:11:07.657Z,990.63
2023-03-07T03:12:11.891Z,990.50
2023-03-07T03:13:16.170Z,990.53
2023-03-07T03:14:20.201Z,990.52
2023-03-07T03:15:24.253Z,990.55
2023-03-07T03:16:28.509Z,990.38
2023-03-07T03:17:32.616Z,990.30
2023-03-07T03:18:36.631Z,990.35
2023-03-07T03:19:40.907Z,990.39
2023-03-07T03:20:44.975Z,990.41
2023-03-07T03:21:49.211Z,990.28
2023-03-07T03:22:53.294Z,990.12
2023-03-07T03:23:57.563Z,990.17
2023-03-07T03:25:01.639Z,990.17
2023-03-07T03:26:05.900Z,990.15
2023-03-07T03:27:10.051Z,990.11
2023-03-07T03:28:17.121Z,990.08
2023-03-07T03:29:20.472Z,990.04
2023-03-07T03:30:24.451Z,990.01
2023-03-07T03:31:28.600Z,989.98
2023-03-07T03:32:32.848Z,990.00
2023-03-07T03:33:36.870Z,989.99
2023-03-07T03:34:41.034Z,989.94
2023-03-07T03:35:45.275Z,989.91
2023-03-07T03:36:49.353Z,989.89
2023-03-07T03:37:53.450Z,989.86
2023-03-07T03:39:11.585Z,989.88
2023-03-07T03:40:14.868Z,989.85
2023-03-07T03:41:18.598Z,989.82
2023-03-07T03:42:22.811Z,989.80
2023-03-07T03:43:26.886Z,989.77
2023-03-07T03:44:31.064Z,989.78
2023-03-07T03:45:49.250Z,989.77
2023-03-07T03:46:52.209Z,989.76
2023-03-07T03:47:56.294Z,989.76
2023-03-07T03:49:00.458Z,989.72
2023-03-07T03:50:04.494Z,989.72
2023-03-07T03:51:08.572Z,989.72
2023-03-07T03:52:12.771Z,989.66
2023-03-07T03:53:16.813Z,989.67
2023-03-07T03:54:21.059Z,989.68
2023-03-07T03:55:25.219Z,989.69
2023-03-07T03:56:29.360Z,989.66
2023-03-07T03:57:33.520Z,989.64
2023-03-07T03:58:37.522Z,989.64
2023-03-07T03:59:41.856Z,989.59
2023-03-07T04:00:45.998Z,989.59
2023-03-07T04:01:50.245Z,989.55
2023-03-07T04:02:54.401Z,989.48
2023-03-07T04:03:58.420Z,989.39
2023-03-07T04:05:02.555Z,989.39
2023-03-07T04:06:06.744Z,989.30
2023-03-07T04:07:16.916Z,989.34
2023-03-07T04:08:19.568Z,989.36
2023-03-07T04:09:23.696Z,989.35
2023-03-07T04:10:27.895Z,989.38
2023-03-07T04:11:46.158Z,989.42
2023-03-07T04:12:49.111Z,989.38
2023-03-07T04:14:07.295Z,989.35
2023-03-07T04:15:10.203Z,989.31
2023-03-07T04:16:14.220Z,989.27
2023-03-07T04:17:18.180Z,989.29
2023-03-07T04:18:22.357Z,989.25
2023-03-07T04:19:27.332Z,989.25
2023-03-07T04:20:30.625Z,989.19
2023-03-07T04:21:34.847Z,989.20
2023-03-07T04:22:39.114Z,989.16
2023-03-07T04:23:43.199Z,989.11
2023-03-07T04:24:47.495Z,989.07
2023-03-07T04:25:51.647Z,989.10
2023-03-07T04:26:55.750Z,989.11
2023-03-07T04:27:59.781Z,989.12
2023-03-07T04:29:03.983Z,989.10
2023-03-07T04:30:08.045Z,989.07
2023-03-07T04:31:12.318Z,989.05
2023-03-07T04:32:16.462Z,988.98
2023-03-07T04:33:20.409Z,988.93
2023-03-07T04:34:24.635Z,988.87
2023-03-07T04:35:28.721Z,988.85
2023-03-07T04:36:32.793Z,988.80
2023-03-07T04:37:36.933Z,988.81
2023-03-07T04:38:41.135Z,988.82
2023-03-07T04:39:45.296Z,988.83
2023-03-07T04:40:49.336Z,988.86
2023-03-07T04:41:53.458Z,988.86
2023-03-07T04:42:57.842Z,988.85
2023-03-07T04:44:01.947Z,988.85
2023-03-07T04:45:06.164Z,988.84
2023-03-07T04:46:10.229Z,988.81
2023-03-07T04:47:14.402Z,988.75
2023-03-07T04:48:24.392Z,988.70
2023-03-07T04:49:27.133Z,988.72
2023-03-07T04:50:31.257Z,988.67
2023-03-07T04:51:35.421Z,988.61
2023-03-07T04:52:39.637Z,988.63
2023-03-07T04:53:43.678Z,988.58
2023-03-07T04:54:47.867Z,988.56
2023-03-07T04:55:52.018Z,988.49
2023-03-07T04:56:56.281Z,988.48
2023-03-07T04:58:00.263Z,988.49
2023-03-07T04:59:04.508Z,988.40
2023-03-07T05:00:08.550Z,988.34
2023-03-07T05:01:12.813Z,988.34
2023-03-07T05:02:16.911Z,988.36
2023-03-07T05:03:21.219Z,988.33
2023-03-07T05:04:25.404Z,988.29
2023-03-07T05:05:29.498Z,988.20
2023-03-07T05:06:33.551Z,988.22
2023-03-07T05:07:37.766Z,988.20
2023-03-07T05:08:41.900Z,988.17
2023-03-07T05:09:46.083Z,988.14
2023-03-07T05:10:50.241Z,988.13
2023-03-07T05:11:54.378Z,988.10
2023-03-07T05:12:58.467Z,988.09
2023-03-07T05:14:02.616Z,988.08
2023-03-07T05:15:06.650Z,988.16
2023-03-07T05:16:11.034Z,988.14
2023-03-07T05:17:15.145Z,988.14
2023-03-07T05:18:19.338Z,988.13
2023-03-07T05:19:23.425Z,988.21
2023-03-07T05:20:27.701Z,988.26
2023-03-07T05:21:31.845Z,988.22
2023-03-07T05:22:36.078Z,988.29
2023-03-07T05:23:40.299Z,988.29
2023-03-07T05:24:44.455Z,988.33
2023-03-07T05:25:48.601Z,988.30
2023-03-07T05:26:52.762Z,988.31
2023-03-07T05:27:56.792Z,988.31
2023-03-07T05:29:00.923Z,988.28
2023-03-07T05:30:05.005Z,988.29
2023-03-07T05:31:09.270Z,988.28
2023-03-07T05:32:13.387Z,988.29
2023-03-07T05:33:17.515Z,988.27
2023-03-07T05:34:21.581Z,988.25
2023-03-07T05:35:25.824Z,988.29
2023-03-07T05:36:29.834Z,988.29
2023-03-07T05:37:33.984Z,988.30
2023-03-07T05:38:38.171Z,988.30
2023-03-07T05:39:42.434Z,988.32
2023-03-07T05:40:46.564Z,988.29
2023-03-07T05:41:50.810Z,988.25
2023-03-07T05:42:54.956Z,988.25
2023-03-07T05:43:59.115Z,988.22
2023-03-07T05:45:03.222Z,988.22
2023-03-07T05:46:07.523Z,988.18
2023-03-07T05:47:11.599Z,988.16
2023-03-07T05:48:15.770Z,988.13
2023-03-07T05:49:20.071Z,988.14
2023-03-07T05:50:24.200Z,988.14
2023-03-07T05:51:28.253Z,988.12
2023-03-07T05:52:32.527Z,988.10
2023-03-07T05:53:36.665Z,988.02
2023-03-07T05:54:40.944Z,987.92
2023-03-07T05:55:45.043Z,987.93
2023-03-07T05:56:49.114Z,987.94
2023-03-07T05:57:53.341Z,987.97
2023-03-07T05:58:57.488Z,987.94
2023-03-07T06:00:01.713Z,987.94
2023-03-07T06:01:05.727Z,987.93
2023-03-07T06:02:09.815Z,987.95
2023-03-07T06:03:14.141Z,987.94
2023-03-07T06:04:18.277Z,987.86
2023-03-07T06:05:24.838Z,987.82
2023-03-07T06:06:26.714Z,987.76
2023-03-07T06:07:30.664Z,987.75
2023-03-07T06:08:35.010Z,987.70
2023-03-07T06:09:39.102Z,987.72
2023-03-07T06:10:43.255Z,987.77
2023-03-07T06:11:47.506Z,987.81
2023-03-07T06:12:51.634Z,987.81
2023-03-07T06:13:55.621Z,987.82
2023-03-07T06:14:59.848Z,987.83
2023-03-07T06:16:04.091Z,987.83
2023-03-07T06:17:22.150Z,987.84
2023-03-07T06:18:25.032Z,987.80
2023-03-07T06:19:43.215Z,987.82
2023-03-07T06:20:46.121Z,987.74
2023-03-07T06:21:50.211Z,987.71
2023-03-07T06:22:54.388Z,987.70
2023-03-07T06:23:58.537Z,987.67
2023-03-07T06:25:02.719Z,987.64
2023-03-07T06:26:06.951Z,987.66
2023-03-07T06:27:10.993Z,987.64
2023-03-07T06:28:15.222Z,987.56
2023-03-07T06:29:19.356Z,987.50
2023-03-07T06:30:23.371Z,987.49
2023-03-07T06:31:27.691Z,987.50
2023-03-07T06:32:31.760Z,987.47
2023-03-07T06:33:35.921Z,987.47
2023-03-07T06:34:39.962Z,987.46
2023-03-07T06:35:45.188Z,987.47
2023-03-07T06:36:48.980Z,987.46
2023-03-07T06:37:53.112Z,987.44
2023-03-07T06:38:57.320Z,987.46
2023-03-07T06:40:01.433Z,987.41
2023-03-07T06:41:05.790Z,987.39
2023-03-07T06:42:09.847Z,987.37
2023-03-07T06:43:14.014Z,987.38
2023-03-07T06:44:18.202Z,987.36
2023-03-07T06:45:22.361Z,987.39
2023-03-07T06:46:26.486Z,987.39
2023-03-07T06:47:30.702Z,987.40
2023-03-07T06:48:34.978Z,987.38
2023-03-07T06:49:39.051Z,987.39
2023-03-07T06:50:43.131Z,987.39
2023-03-07T06:51:47.579Z,987.37
2023-03-07T06:52:51.673Z,987.31
2023-03-07T06:53:55.864Z,987.28
2023-03-07T06:54:59.977Z,987.27
2023-03-07T06:56:04.132Z,987.23
2023-03-07T06:57:09.206Z,987.19
2023-03-07T06:58:12.999Z,987.22
2023-03-07T06:59:17.005Z,987.21
2023-03-07T07:00:21.319Z,987.19
2023-03-07T07:01:25.568Z,987.16
2023-03-07T07:02:29.785Z,987.14
2023-03-07T07:03:33.756Z,987.14
2023-03-07T07:04:38.055Z,987.09
2023-03-07T07:05:42.097Z,987.08
2023-03-07T07:06:46.414Z,987.05
2023-03-07T07:07:50.595Z,987.09
2023-03-07T07:08:54.657Z,987.01
2023-03-07T07:09:58.916Z,986.94
2023-03-07T07:11:03.164Z,986.98
2023-03-07T07:12:07.366Z,986.91
2023-03-07T07:13:11.506Z,986.88
2023-03-07T07:14:15.668Z,986.91
2023-03-07T07:15:19.814Z,986.91
2023-03-07T07:16:24.037Z,986.90
2023-03-07T07:17:28.165Z,986.89
2023-03-07T07:18:32.447Z,986.89
2023-03-07T07:19:36.617Z,986.86
2023-03-07T07:20:40.839Z,986.82
2023-03-07T07:21:44.991Z,986.86
2023-03-07T07:22:49.132Z,986.85
2023-03-07T07:23:53.367Z,986.88
2023-03-07T07:24:57.663Z,986.83
2023-03-07T07:26:01.944Z,986.81
2023-03-07T07:27:06.109Z,986.74
2023-03-07T07:28:10.257Z,986.77
2023-03-07T07:29:14.496Z,986.76
2023-03-07T07:30:18.636Z,986.74
2023-03-07T07:31:22.872Z,986.74
2023-03-07T07:32:27.123Z,986.74
2023-03-07T07:33:31.121Z,986.73
2023-03-07T07:34:35.210Z,986.75
2023-03-07T07:35:39.414Z,986.70
2023-03-07T07:36:43.541Z,986.70
2023-03-07T07:37:47.708Z,986.62
2023-03-07T07:38:51.953Z,986.62
2023-03-07T07:39:56.124Z,986.63
2023-03-07T07:41:00.316Z,986.57
2023-03-07T07:42:04.465Z,986.52
2023-03-07T07:43:08.615Z,986.50
2023-03-07T07:44:12.950Z,986.45
2023-03-07T07:45:17.093Z,986.41
2023-03-07T07:46:21.478Z,986.40
2023-03-07T07:47:25.514Z,986.38
2023-03-07T07:48:29.695Z,986.38
2023-03-07T07:49:33.730Z,986.31
2023-03-07T07:50:37.965Z,986.33
2023-03-07T07:51:42.145Z,986.33
2023-03-07T07:52:46.327Z,986.33
2023-03-07T07:53:50.584Z,986.25
2023-03-07T07:54:54.734Z,986.32
2023-03-07T07:55:58.901Z,986.23
2023-03-07T07:57:02.979Z,986.24
2023-03-07T07:58:07.211Z,986.25
2023-03-07T07:59:11.497Z,986.27
2023-03-07T08:00:15.617Z,986.19
2023-03-07T08:01:19.753Z,986.24
2023-03-07T08:02:23.968Z,986.21
2023-03-07T08:03:28.194Z,986.22
2023-03-07T08:04:32.406Z,986.28
2023-03-07T08:05:36.495Z,986.28
2023-03-07T08:06:40.633Z,986.29
2023-03-07T08:07:44.837Z,986.27
2023-03-07T08:08:48.921Z,986.24
2023-03-07T08:09:53.110Z,986.20
2023-03-07T08:10:57.313Z,986.23
2023-03-07T08:12:01.501Z,986.24
2023-03-07T08:13:05.640Z,986.25
2023-03-07T08:14:09.840Z,986.19
2023-03-07T08:15:13.962Z,986.14
2023-03-07T08:16:18.326Z,986.12
2023-03-07T08:17:22.337Z,986.16
2023-03-07T08:18:26.502Z,986.15
2023-03-07T08:19:30.724Z,986.20
2023-03-07T08:20:34.883Z,986.23
2023-03-07T08:21:39.055Z,986.20
2023-03-07T08:22:43.235Z,986.20
2023-03-07T08:23:47.390Z,986.13
2023-03-07T08:24:51.630Z,986.16
2023-03-07T08:25:55.680Z,986.21
2023-03-07T08:26:59.874Z,986.13
2023-03-07T08:28:04.064Z,986.14
2023-03-07T08:29:08.262Z,986.19
2023-03-07T08:30:12.479Z,986.17
2023-03-07T08:31:16.596Z,986.16
2023-03-07T08:32:20.801Z,986.16
2023-03-07T08:33:24.930Z,986.15
2023-03-07T08:34:29.246Z,986.18
2023-03-07T08:35:33.382Z,986.17
2023-03-07T08:36:37.434Z,986.15
2023-03-07T08:37:41.746Z,986.12
2023-03-07T08:38:45.799Z,986.12
2023-03-07T08:39:50.027Z,986.05
2023-03-07T08:40:54.277Z,986.00
2023-03-07T08:41:58.441Z,986.05
2023-03-07T08:43:02.619Z,986.00
2023-03-07T08:44:06.673Z,986.02
2023-03-07T08:45:10.833Z,986.06
2023-03-07T08:46:15.203Z,986.01
2023-03-07T08:47:19.311Z,986.04
2023-03-07T08:48:23.502Z,986.13
2023-03-07T08:49:27.643Z,986.10
2023-03-07T08:50:31.899Z,986.05
2023-03-07T08:51:35.998Z,986.02
2023-03-07T08:52:40.262Z,986.06
2023-03-07T08:53:44.484Z,986.10
2023-03-07T08:54:48.612Z,985.99
2023-03-07T08:55:52.824Z,986.01
2023-03-07T08:56:56.967Z,986.02
2023-03-07T08:59:28.351Z,986.11
2023-03-07T09:00:32.459Z,986.11
2023-03-07T09:01:36.719Z,986.10
2023-03-07T09:02:40.866Z,986.06
2023-03-07T09:03:45.185Z,986.06
2023-03-07T09:04:49.341Z,986.02
2023-03-07T09:05:53.439Z,986.05
2023-03-07T09:06:59.108Z,985.97
2023-03-07T09:08:01.955Z,985.99
2023-03-07T09:09:06.110Z,986.04
2023-03-07T09:10:10.308Z,985.96
2023-03-07T09:11:14.516Z,986.01
2023-03-07T09:12:18.594Z,986.04
2023-03-07T09:13:22.831Z,986.06
2023-03-07T09:14:27.058Z,986.01
2023-03-07T09:15:37.281Z,986.03
2023-03-07T09:16:40.312Z,986.13
2023-03-07T09:17:44.170Z,986.09
2023-03-07T09:18:48.479Z,986.07
2023-03-07T09:19:52.617Z,986.15
2023-03-07T09:20:56.830Z,986.04
2023-03-07T09:22:00.902Z,986.07
2023-03-07T09:23:05.209Z,986.07
2023-03-07T09:24:09.483Z,986.05
2023-03-07T09:25:13.619Z,986.16
2023-03-07T09:26:17.818Z,986.13
2023-03-07T09:27:22.098Z,986.15
2023-03-07T09:28:26.259Z,986.12
2023-03-07T09:29:36.442Z,986.16
2023-03-07T09:30:39.236Z,986.11
2023-03-07T09:31:43.456Z,986.15
2023-03-07T09:32:47.572Z,986.16
2023-03-07T09:35:18.889Z,986.19
2023-03-07T09:36:22.946Z,986.17
2023-03-07T09:37:27.440Z,986.27
2023-03-07T09:38:31.517Z,986.25
2023-03-07T09:39:35.670Z,986.26
2023-03-07T09:40:39.860Z,986.26
2023-03-07T09:41:44.055Z,986.36
2023-03-07T09:42:48.385Z,986.35
2023-03-07T09:43:52.493Z,986.31
2023-03-07T09:44:56.680Z,986.33
2023-03-07T09:46:01.011Z,986.30
2023-03-07T09:47:05.331Z,986.34
2023-03-07T09:48:09.516Z,986.37
2023-03-07T09:49:13.903Z,986.34
2023-03-07T09:50:18.044Z,986.35
2023-03-07T09:51:22.259Z,986.33
2023-03-07T09:52:26.396Z,986.35
2023-03-07T09:53:30.627Z,986.41
2023-03-07T09:54:34.811Z,986.41
2023-03-07T09:55:39.014Z,986.48
2023-03-07T09:56:43.203Z,986.45
2023-03-07T09:57:47.384Z,986.42
2023-03-07T09:58:51.652Z,986.42
2023-03-07T09:59:55.800Z,986.38
2023-03-07T10:00:59.998Z,986.38
2023-03-07T10:02:04.162Z,986.41
2023-03-07T10:03:08.535Z,986.38
2023-03-07T10:04:12.619Z,986.41
2023-03-07T10:05:16.744Z,986.42
2023-03-07T10:06:21.028Z,986.47
2023-03-07T10:07:25.203Z,986.47
2023-03-07T10:08:29.418Z,986.45
2023-03-07T10:09:33.617Z,986.44
2023-03-07T10:10:37.817Z,986.48
2023-03-07T10:11:42.115Z,986.49
2023-03-07T10:12:46.193Z,986.44
2023-03-07T10:13:50.410Z,986.42
2023-03-07T10:14:54.684Z,986.41
2023-03-07T10:15:58.947Z,986.36
2023-03-07T10:17:03.282Z,986.39
2023-03-07T10:18:07.414Z,986.43
2023-03-07T10:19:11.649Z,986.42
2023-03-07T10:20:15.794Z,986.40
2023-03-07T10:21:19.891Z,986.44
2023-03-07T10:22:24.144Z,986.37
2023-03-07T10:23:28.339Z,986.41
2023-03-07T10:24:32.550Z,986.39
2023-03-07T10:25:36.711Z,986.42
2023-03-07T10:26:40.903Z,986.50
2023-03-07T10:27:45.121Z,986.66
2023-03-07T10:28:49.395Z,986.62
2023-03-07T10:29:53.553Z,986.68
2023-03-07T10:30:57.798Z,986.66
2023-03-07T10:32:02.010Z,986.73
2023-03-07T10:33:06.251Z,986.77
2023-03-07T10:34:13.690Z,986.77
2023-03-07T10:35:14.637Z,986.65
2023-03-07T10:36:18.812Z,986.72
2023-03-07T10:37:37.017Z,986.75
2023-03-07T10:38:40.113Z,986.85
2023-03-07T10:39:44.210Z,986.88
2023-03-07T10:40:48.407Z,986.84
2023-03-07T10:41:52.580Z,986.81
2023-03-07T10:42:56.880Z,986.81
2023-03-07T10:44:01.027Z,986.80
2023-03-07T10:45:05.228Z,986.74
2023-03-07T10:46:23.880Z,986.77
2023-03-07T10:47:13.671Z,986.79
2023-03-07T10:48:17.955Z,986.78
2023-03-07T10:49:22.206Z,986.77
2023-03-07T10:50:26.362Z,986.83
2023-03-07T10:51:30.427Z,986.84
2023-03-07T10:52:34.706Z,986.86
2023-03-07T10:53:38.927Z,986.89
2023-03-07T10:54:43.169Z,986.89
2023-03-07T10:55:47.363Z,986.95
2023-03-07T10:56:51.662Z,986.94
2023-03-07T10:57:57.553Z,987.00
2023-03-07T10:59:00.032Z,986.99
2023-03-07T11:00:04.202Z,986.92
2023-03-07T11:01:08.634Z,986.95
2023-03-07T11:02:12.679Z,986.98
2023-03-07T11:03:16.843Z,986.94
2023-03-07T11:04:21.073Z,987.06
2023-03-07T11:05:25.229Z,987.12
2023-03-07T11:06:29.481Z,986.94
2023-03-07T11:07:33.646Z,987.01
2023-03-07T11:08:37.730Z,986.96
2023-03-07T11:09:41.965Z,987.00
2023-03-07T11:10:46.169Z,986.97
2023-03-07T11:11:50.392Z,986.98
2023-03-07T11:12:54.549Z,986.94
2023-03-07T11:14:14.821Z,986.96
2023-03-07T11:15:15.857Z,986.97
2023-03-07T11:16:20.047Z,986.96
2023-03-07T11:18:51.019Z,987.01
2023-03-07T11:19:55.154Z,987.00
2023-03-07T11:20:59.345Z,987.02
2023-03-07T11:22:03.592Z,986.98
2023-03-07T11:23:07.728Z,986.90
2023-03-07T11:24:11.941Z,986.94
2023-03-07T11:25:16.237Z,986.92
2023-03-07T11:26:20.461Z,986.92
2023-03-07T11:27:24.607Z,986.95
2023-03-07T11:28:28.788Z,986.95
2023-03-07T11:29:32.846Z,986.94
2023-03-07T11:30:37.087Z,986.94
2023-03-07T11:31:41.274Z,986.93
2023-03-07T11:32:45.587Z,986.94
2023-03-07T11:33:59.226Z,986.93
2023-03-07T11:34:53.849Z,986.90
2023-03-07T11:35:58.168Z,986.92
2023-03-07T11:37:02.344Z,986.87
2023-03-07T11:38:06.606Z,986.88
2023-03-07T11:39:10.781Z,986.90
2023-03-07T11:40:14.946Z,986.91
2023-03-07T11:41:19.250Z,986.93
2023-03-07T11:42:23.440Z,986.91
2023-03-07T11:43:27.676Z,986.94
2023-03-07T11:44:31.841Z,986.94
2023-03-07T11:45:36.142Z,986.93
2023-03-07T11:46:40.450Z,986.93
2023-03-07T11:47:44.542Z,986.92
2023-03-07T11:48:48.923Z,986.85
2023-03-07T11:49:53.089Z,986.91
2023-03-07T11:50:57.319Z,986.92
2023-03-07T11:52:01.501Z,987.01
2023-03-07T11:53:05.933Z,987.10
2023-03-07T11:54:10.026Z,987.16
2023-03-07T11:55:14.275Z,987.15
2023-03-07T11:56:18.529Z,987.13
2023-03-07T11:57:22.707Z,987.20
2023-03-07T11:58:27.020Z,987.20
2023-03-07T11:59:31.281Z,987.10
2023-03-07T12:00:49.545Z,987.16
2023-03-07T12:01:52.602Z,987.08
2023-03-07T12:02:56.848Z,987.08
2023-03-07T12:04:00.901Z,987.04
2023-03-07T12:05:05.066Z,987.06
2023-03-07T12:06:09.331Z,987.01
2023-03-07T12:07:13.431Z,986.96
2023-03-07T12:08:17.768Z,986.94
2023-03-07T12:09:21.891Z,986.88
2023-03-07T12:10:26.136Z,986.93
2023-03-07T12:11:30.409Z,986.92
2023-03-07T12:12:34.648Z,986.93
2023-03-07T12:13:38.707Z,986.94
2023-03-07T12:14:42.971Z,986.96
2023-03-07T12:15:47.269Z,986.93
2023-03-07T12:16:51.471Z,986.98
2023-03-07T12:17:58.602Z,986.97
2023-03-07T12:19:01.870Z,986.99
2023-03-07T12:20:06.132Z,986.97
2023-03-07T12:21:10.300Z,986.96
2023-03-07T12:22:14.557Z,987.01
2023-03-07T12:23:18.568Z,986.88
2023-03-07T12:24:22.810Z,986.88
2023-03-07T12:25:27.207Z,986.97
2023-03-07T12:26:31.357Z,986.97
2023-03-07T12:27:35.528Z,986.98
2023-03-07T12:28:39.641Z,987.02
2023-03-07T12:29:43.871Z,987.02
2023-03-07T12:30:48.057Z,986.98
2023-03-07T12:31:52.407Z,986.91
2023-03-07T12:32:56.769Z,986.90
2023-03-07T12:34:06.841Z,986.95
2023-03-07T12:35:10.429Z,986.95
2023-03-07T12:36:14.398Z,986.90
2023-03-07T12:37:18.394Z,986.95
2023-03-07T12:38:22.632Z,986.94
2023-03-07T12:39:26.817Z,987.01
2023-03-07T12:40:31.074Z,987.06
2023-03-07T12:41:35.150Z,987.01
2023-03-07T12:42:39.511Z,986.98
2023-03-07T12:43:43.696Z,986.99
2023-03-07T12:44:48.048Z,986.95
2023-03-07T12:45:52.270Z,986.99
2023-03-07T12:46:56.479Z,986.98
2023-03-07T12:48:00.708Z,986.90
2023-03-07T12:49:05.042Z,986.86
2023-03-07T12:50:09.168Z,986.90
2023-03-07T12:51:13.361Z,986.95
2023-03-07T12:52:17.610Z,986.96
2023-03-07T12:53:21.786Z,986.94
2023-03-07T12:54:26.147Z,986.94
2023-03-07T12:55:30.353Z,986.97
2023-03-07T12:56:34.605Z,986.99
2023-03-07T12:57:38.803Z,986.94
2023-03-07T12:58:43.013Z,986.96
2023-03-07T12:59:47.235Z,986.96
2023-03-07T13:00:51.542Z,987.00
2023-03-07T13:01:55.667Z,986.97
2023-03-07T13:03:00.035Z,987.01
2023-03-07T13:04:04.265Z,987.01
2023-03-07T13:05:08.464Z,987.11
2023-03-07T13:06:12.673Z,987.19
2023-03-07T13:07:16.919Z,987.26
2023-03-07T13:08:21.148Z,987.33
2023-03-07T13:09:25.378Z,987.43
2023-03-07T13:10:29.594Z,987.43
2023-03-07T13:11:33.866Z,987.44
2023-03-07T13:12:37.974Z,987.52
2023-03-07T13:13:42.189Z,987.58
2023-03-07T13:14:46.359Z,987.51
2023-03-07T13:15:50.547Z,987.48
2023-03-07T13:16:54.812Z,987.44
2023-03-07T13:17:58.899Z,987.48
2023-03-07T13:19:03.158Z,987.57
2023-03-07T13:20:10.381Z,987.54
2023-03-07T13:21:13.667Z,987.51
2023-03-07T13:22:17.858Z,987.55
2023-03-07T13:23:22.097Z,987.56
2023-03-07T13:24:26.250Z,987.60
2023-03-07T13:25:30.649Z,987.60
2023-03-07T13:26:34.871Z,987.61
2023-03-07T13:27:38.979Z,987.66